Time;durP1;ratioP1;P1;durP2;ratioP2;P2;SDS_P1;SDS_P2;PMS_P1;PMS_P2;Temp;Humidity;BMP_temperature;BMP_pressure;BME280_temperature;BME280_humidity;BME280_pressure;Samples;Min_cycle;Max_cycle;Signal;HPM_P1;HPM_P2
2023/11/07 00:00:22;;;;;;;;;;;;;;;16.80;45.63;101140.66;5086227;28;1010;-44
2023/11/07 00:02:53;;;;;;;;;;;;;;;17.54;46.88;101149.78;5083412;28;1085;-45
2023/11/07 00:05:21;;;;;;;;;;;;;;;17.04;46.77;101141.13;5086781;28;1158;-44
2023/11/07 00:07:47;;;;;;;;;;;;;;;16.86;45.97;101141.53;5084579;28;1980;-44
2023/11/07 00:10:12;;;;;;;;;;;;;;;16.78;45.32;101145.59;5077606;28;1093;-46
2023/11/07 00:12:38;;;;;;;;;;;;;;;17.22;46.14;101153.56;5079951;28;1039;-47
2023/11/07 00:15:04;;;;;;;;;;;;;;;17.35;47.21;101146.72;5098111;28;1114;-47
2023/11/07 00:17:29;;;;;;;;;;;;;;;17.02;46.78;101153.47;5082495;28;1141;-46
2023/11/07 00:19:58;;;;;;;;;;;;;;;16.88;46.01;101150.34;5085609;28;1102;-44
2023/11/07 00:22:23;;;;;;;;;;;;;;;16.76;45.31;101145.06;5079886;28;1117;-46
2023/11/07 00:24:49;;;;;;;;;;;;;;;18.06;46.71;101159.00;5109452;28;1189;-47
2023/11/07 00:27:18;;;;;;;;;;;;;;;17.25;47.33;101149.41;5095494;28;1053;-46
2023/11/07 00:29:47;;;;;;;;;;;;;;;17.08;46.81;101152.38;5086684;28;1974;-46
2023/11/07 00:32:12;;;;;;;;;;;;;;;17.43;47.58;101153.59;5084154;28;1256;-46
2023/11/07 00:34:40;;;;;;;;;;;;;;;17.10;46.81;101153.78;5087805;28;1038;-46
2023/11/07 00:37:05;;;;;;;;;;;;;;;16.91;46.12;101147.06;5072646;28;1580;-43
2023/11/07 00:39:31;;;;;;;;;;;;;;;17.53;47.36;101156.41;5087711;28;1097;-46
2023/11/07 00:41:56;;;;;;;;;;;;;;;17.08;47.26;101150.47;5097310;28;1058;-42
2023/11/07 00:44:22;;;;;;;;;;;;;;;16.98;46.21;101155.91;5089587;28;1118;-43
2023/11/07 00:46:47;;;;;;;;;;;;;;;17.99;47.07;101157.63;5080687;28;1221;-46
2023/11/07 00:49:13;;;;;;;;;;;;;;;17.39;47.32;101145.09;5069153;28;1905;-44
2023/11/07 00:51:38;;;;;;;;;;;;;;;17.14;46.57;101147.72;5080335;28;1137;-44
2023/11/07 00:54:04;;;;;;;;;;;;;;;17.05;45.58;101144.69;5076841;28;1082;-44
2023/11/07 00:56:31;;;;;;;;;;;;;;;16.89;45.13;101144.59;5079681;28;1209;-45
2023/11/07 00:58:56;;;;;;;;;;;;;;;17.01;45.85;101146.31;5068580;28;1345;-47
2023/11/07 01:01:22;;;;;;;;;;;;;;;17.64;47.25;101150.94;5090285;28;1311;-46
2023/11/07 01:03:47;;;;;;;;;;;;;;;17.16;46.89;101148.31;5076997;28;1118;-47
2023/11/07 01:06:13;;;;;;;;;;;;;;;17.05;45.94;101151.00;5075768;28;1093;-45
2023/11/07 01:08:38;;;;;;;;;;;;;;;17.47;47.34;101148.41;5064184;28;2062;-42
2023/11/07 01:11:04;;;;;;;;;;;;;;;17.16;46.37;101143.63;5090419;28;1004;-45
2023/11/07 01:13:30;;;;;;;;;;;;;;;16.96;45.99;101141.63;5076986;28;1074;-45
2023/11/07 01:15:55;;;;;;;;;;;;;;;16.84;45.15;101149.22;5092600;28;1149;-44
2023/11/07 01:18:21;;;;;;;;;;;;;;;17.58;45.78;101144.59;5096901;28;1125;-47
2023/11/07 01:20:47;;;;;;;;;;;;;;;17.33;47.18;101145.34;5084372;28;1217;-44
2023/11/07 01:23:13;;;;;;;;;;;;;;;17.06;46.24;101136.16;5087635;28;1058;-47
2023/11/07 01:25:38;;;;;;;;;;;;;;;16.85;45.82;101151.69;5073721;28;1135;-43
2023/11/07 01:28:04;;;;;;;;;;;;;;;16.84;44.93;101139.03;5096847;28;1901;-46
2023/11/07 01:30:29;;;;;;;;;;;;;;;17.58;46.35;101155.59;5062859;28;1165;-43
2023/11/07 01:32:56;;;;;;;;;;;;;;;17.29;47.14;101150.53;5084449;28;1067;-44
2023/11/07 01:35:21;;;;;;;;;;;;;;;17.08;46.23;101155.97;5080927;28;1124;-45
2023/11/07 01:37:47;;;;;;;;;;;;;;;17.76;46.87;101152.31;5076181;28;1142;-44
2023/11/07 01:40:13;;;;;;;;;;;;;;;17.17;46.95;101161.78;5089780;28;1101;-43
2023/11/07 01:42:44;;;;;;;;;;;;;;;16.96;46.30;101155.34;5084385;28;1030;-48
2023/11/07 01:45:10;;;;;;;;;;;;;;;17.10;45.96;101169.44;5084942;28;1221;-46
2023/11/07 01:47:36;;;;;;;;;;;;;;;17.30;46.71;101171.44;5086907;28;1121;-48
2023/11/07 01:50:02;;;;;;;;;;;;;;;17.07;46.48;101181.78;5079063;28;1914;-45
2023/11/07 01:52:28;;;;;;;;;;;;;;;18.28;46.69;101183.50;5052220;28;1473;-44
2023/11/07 01:54:53;;;;;;;;;;;;;;;17.44;47.43;101186.31;5092400;28;1177;-45
2023/11/07 01:57:19;;;;;;;;;;;;;;;17.08;46.93;101183.44;5091952;28;1193;-47
2023/11/07 01:59:45;;;;;;;;;;;;;;;16.96;45.81;101174.59;5079324;28;1030;-44
2023/11/07 02:02:17;;;;;;;;;;;;;;;16.90;45.15;101186.63;5068324;28;1137;-42
2023/11/07 02:04:47;;;;;;;;;;;;;;;16.92;45.28;101187.19;5073786;28;1599;-45
2023/11/07 02:07:12;;;;;;;;;;;;;;;17.92;46.90;101196.38;5076350;28;1336;-47
2023/11/07 02:09:38;;;;;;;;;;;;;;;17.23;47.12;101190.09;5065130;28;1992;-46
2023/11/07 02:12:04;;;;;;;;;;;;;;;17.06;46.13;101196.59;5085407;28;1157;-47
2023/11/07 02:14:30;;;;;;;;;;;;;;;16.89;45.45;101195.97;5041475;28;1174;-44
2023/11/07 02:16:56;;;;;;;;;;;;;;;16.91;44.72;101205.59;5087018;28;1171;-44
2023/11/07 02:19:21;;;;;;;;;;;;;;;17.79;46.40;101215.06;5091822;28;1054;-45
2023/11/07 02:21:47;;;;;;;;;;;;;;;17.31;47.36;101202.53;5060251;28;1202;-45
2023/11/07 02:24:12;;;;;;;;;;;;;;;17.15;46.21;101204.34;5055331;28;1462;-45
2023/11/07 02:26:38;;;;;;;;;;;;;;;17.28;46.87;101210.19;5087143;28;1059;-47
2023/11/07 02:29:05;;;;;;;;;;;;;;;17.47;47.24;101201.47;5091344;28;1980;-44
2023/11/07 02:31:31;;;;;;;;;;;;;;;17.05;46.77;101205.94;5087155;28;1140;-43
2023/11/07 02:33:56;;;;;;;;;;;;;;;18.08;47.00;101211.84;5081706;28;1085;-44
2023/11/07 02:36:22;;;;;;;;;;;;;;;17.38;47.37;101219.59;5077689;28;1192;-43
2023/11/07 02:38:48;;;;;;;;;;;;;;;17.17;46.46;101210.41;5073240;28;1186;-47
2023/11/07 02:41:13;;;;;;;;;;;;;;;17.04;45.81;101208.94;5086730;28;1117;-48
2023/11/07 02:43:38;;;;;;;;;;;;;;;16.98;44.95;101210.84;5077925;28;1026;-42
2023/11/07 02:46:04;;;;;;;;;;;;;;;17.42;45.97;101216.03;5084585;28;1121;-47
2023/11/07 02:48:29;;;;;;;;;;;;;;;17.25;47.06;101212.63;5078300;28;1968;-46
2023/11/07 02:50:55;;;;;;;;;;;;;;;17.00;46.28;101216.91;5088401;28;1147;-47
2023/11/07 02:53:21;;;;;;;;;;;;;;;17.52;46.61;101215.25;5085465;28;1185;-43
2023/11/07 02:55:47;;;;;;;;;;;;;;;17.64;47.15;101223.25;5088345;28;1446;-49
2023/11/07 02:58:13;;;;;;;;;;;;;;;17.24;46.75;101222.00;5086808;28;1219;-47
2023/11/07 03:00:39;;;;;;;;;;;;;;;17.00;46.14;101219.66;5090086;28;1133;-47
2023/11/07 03:03:04;;;;;;;;;;;;;;;17.88;47.15;101212.59;5085710;28;1150;-46
2023/11/07 03:05:30;;;;;;;;;;;;;;;17.28;47.45;101218.44;5070582;28;1157;-46
2023/11/07 03:07:56;;;;;;;;;;;;;;;17.16;46.45;101222.50;5079261;28;1898;-45
2023/11/07 03:10:22;;;;;;;;;;;;;;;17.08;45.26;101227.41;5079214;28;1131;-43
2023/11/07 03:12:47;;;;;;;;;;;;;;;17.83;46.33;101222.78;5095905;28;1114;-45
2023/11/07 03:15:13;;;;;;;;;;;;;;;17.29;47.09;101222.00;5088922;28;1138;-47
2023/11/07 03:17:40;;;;;;;;;;;;;;;17.10;46.33;101225.22;5092198;28;1038;-47
2023/11/07 03:20:06;;;;;;;;;;;;;;;16.92;45.71;101222.91;5089767;28;1118;-46
2023/11/07 03:22:32;;;;;;;;;;;;;;;18.10;46.59;101220.66;5085058;28;1004;-46
2023/11/07 03:24:58;;;;;;;;;;;;;;;17.41;47.28;101225.34;5098696;28;1128;-42
2023/11/07 03:27:23;;;;;;;;;;;;;;;17.25;46.20;101220.88;5067279;28;1177;-47
2023/11/07 03:29:50;;;;;;;;;;;;;;;17.07;45.44;101236.75;5084494;28;1905;-43
2023/11/07 03:32:15;;;;;;;;;;;;;;;16.82;45.51;101233.81;5066265;28;1379;-45
2023/11/07 03:34:41;;;;;;;;;;;;;;;17.03;45.70;101235.63;5098652;28;894;-47
2023/11/07 03:37:06;;;;;;;;;;;;;;;17.77;46.84;101242.00;5084792;28;1221;-43
2023/11/07 03:39:32;;;;;;;;;;;;;;;17.31;46.87;101247.31;5089993;28;1054;-44
2023/11/07 03:41:58;;;;;;;;;;;;;;;17.10;45.69;101252.69;5073792;28;1644;-45
2023/11/07 03:44:24;;;;;;;;;;;;;;;16.97;45.20;101261.41;5060592;28;1295;-47
2023/11/07 03:46:49;;;;;;;;;;;;;;;16.88;44.67;101250.06;5087630;28;1145;-45
2023/11/07 03:49:15;;;;;;;;;;;;;;;16.78;44.45;101252.72;5078082;28;1977;-46
2023/11/07 03:51:40;;;;;;;;;;;;;;;17.52;46.20;101255.66;5080301;28;1165;-46
2023/11/07 03:54:06;;;;;;;;;;;;;;;17.09;46.17;101262.00;5089673;28;999;-43
2023/11/07 03:56:31;;;;;;;;;;;;;;;17.07;46.19;101266.16;5091419;28;1039;-45
2023/11/07 03:58:57;;;;;;;;;;;;;;;17.52;46.79;101269.41;5080552;28;893;-43
2023/11/07 04:01:22;;;;;;;;;;;;;;;17.12;46.52;101268.09;5093349;28;1053;-45
2023/11/07 04:03:48;;;;;;;;;;;;;;;16.84;45.95;101276.38;5088847;28;1069;-46
2023/11/07 04:06:13;;;;;;;;;;;;;;;16.84;45.01;101283.78;5091010;28;963;-46
2023/11/07 04:08:39;;;;;;;;;;;;;;;17.70;46.43;101285.44;5087414;28;1902;-46
2023/11/07 04:11:05;;;;;;;;;;;;;;;17.49;47.21;101286.41;5091087;28;1121;-47
2023/11/07 04:13:30;;;;;;;;;;;;;;;17.17;46.39;101292.88;5087044;28;1193;-48
2023/11/07 04:15:57;;;;;;;;;;;;;;;16.98;45.71;101286.94;5097637;28;1093;-44
2023/11/07 04:18:25;;;;;;;;;;;;;;;16.87;44.98;101294.25;5098379;28;1133;-45
2023/11/07 04:20:51;;;;;;;;;;;;;;;17.88;46.27;101306.16;5080788;28;1065;-43
2023/11/07 04:23:18;;;;;;;;;;;;;;;17.24;47.00;101298.94;5087801;28;877;-43
2023/11/07 04:25:43;;;;;;;;;;;;;;;17.06;46.23;101294.72;5084171;28;1149;-46
2023/11/07 04:28:09;;;;;;;;;;;;;;;16.89;45.64;101294.88;5093753;28;1909;-44
2023/11/07 04:30:35;;;;;;;;;;;;;;;18.00;46.37;101302.34;5094138;28;1117;-44
2023/11/07 04:33:00;;;;;;;;;;;;;;;17.28;46.80;101302.81;5077649;28;1137;-46
2023/11/07 04:35:26;;;;;;;;;;;;;;;17.04;46.04;101294.97;5087711;28;1046;-44
2023/11/07 04:37:53;;;;;;;;;;;;;;;16.92;45.51;101294.31;5077482;28;1117;-46
2023/11/07 04:40:19;;;;;;;;;;;;;;;16.82;44.72;101300.53;5094327;28;1218;-46
2023/11/07 04:42:44;;;;;;;;;;;;;;;17.87;46.03;101292.66;5086400;28;1157;-52
2023/11/07 04:45:11;;;;;;;;;;;;;;;17.48;47.13;101291.09;5077145;28;1058;-55
2023/11/07 04:47:37;;;;;;;;;;;;;;;17.16;46.55;101299.44;5079511;28;896;-57
2023/11/07 04:50:02;;;;;;;;;;;;;;;17.92;46.97;101301.78;5077063;28;1984;-58
2023/11/07 04:52:28;;;;;;;;;;;;;;;17.45;47.72;101300.72;5089606;28;1154;-56
2023/11/07 04:54:53;;;;;;;;;;;;;;;17.12;47.17;101301.88;5091529;28;1134;-52
2023/11/07 04:57:20;;;;;;;;;;;;;;;17.13;45.72;101305.47;5088907;28;1087;-51
2023/11/07 04:59:45;;;;;;;;;;;;;;;16.96;45.18;101314.69;5087378;28;1118;-53
2023/11/07 05:02:11;;;;;;;;;;;;;;;16.84;44.78;101316.75;5097136;28;1062;-55
2023/11/07 05:04:36;;;;;;;;;;;;;;;16.89;44.54;101336.88;5078087;28;1149;-54
2023/11/07 05:07:02;;;;;;;;;;;;;;;17.64;46.85;101332.44;5079304;28;1193;-54
2023/11/07 05:09:28;;;;;;;;;;;;;;;17.09;46.88;101338.94;5092329;28;1972;-53
2023/11/07 05:11:55;;;;;;;;;;;;;;;17.07;46.58;101324.66;5081715;28;889;-52
2023/11/07 05:14:20;;;;;;;;;;;;;;;17.44;47.00;101332.03;5092252;28;1074;-52
2023/11/07 05:16:47;;;;;;;;;;;;;;;17.02;46.64;101338.34;5096874;28;1041;-50
2023/11/07 05:19:14;;;;;;;;;;;;;;;17.28;46.44;101339.38;5093439;28;1117;-52
2023/11/07 05:21:41;;;;;;;;;;;;;;;17.45;47.34;101341.94;5076916;28;1074;-55
2023/11/07 05:24:06;;;;;;;;;;;;;;;17.06;46.69;101350.47;5089547;28;1086;-54
2023/11/07 05:26:32;;;;;;;;;;;;;;;16.96;45.85;101350.41;5086378;28;1102;-53
2023/11/07 05:28:58;;;;;;;;;;;;;;;16.78;45.50;101365.31;5096230;28;1893;-52
2023/11/07 05:31:24;;;;;;;;;;;;;;;16.93;45.40;101373.72;5087065;28;1049;-50
2023/11/07 05:33:50;;;;;;;;;;;;;;;17.58;44.69;101367.31;5079131;28;1063;-53
2023/11/07 05:36:15;;;;;;;;;;;;;;;17.14;46.08;101368.41;5089840;28;909;-52
2023/11/07 05:38:44;;;;;;;;;;;;;;;16.95;46.93;101387.19;5083157;28;1026;-57
2023/11/07 05:41:10;;;;;;;;;;;;;;;16.68;47.74;101396.25;5086230;28;1030;-54
2023/11/07 05:43:35;;;;;;;;;;;;;;;16.53;48.67;101394.16;5084743;28;1101;-53
2023/11/07 05:46:02;;;;;;;;;;;;;;;16.46;49.09;101400.97;5095653;28;1331;-56
2023/11/07 05:48:28;;;;;;;;;;;;;;;16.33;49.55;101402.19;5079138;28;2660;-56
2023/11/07 05:50:53;;;;;;;;;;;;;;;16.28;49.77;101400.19;5094247;28;1741;-54
2023/11/07 05:53:19;;;;;;;;;;;;;;;16.12;50.21;101395.59;5086803;28;2104;-54
2023/11/07 05:55:47;;;;;;;;;;;;;;;16.08;50.45;101395.31;5088837;28;1912;-53
2023/11/07 05:58:13;;;;;;;;;;;;;;;16.03;50.73;101404.31;5087038;28;1863;-53
2023/11/07 06:00:39;;;;;;;;;;;;;;;15.98;50.98;101403.41;5080996;28;1783;-55
2023/11/07 06:03:05;;;;;;;;;;;;;;;15.85;51.53;101410.06;5084433;28;1912;-52
2023/11/07 06:05:30;;;;;;;;;;;;;;;15.89;51.38;101422.19;5083340;28;1820;-54
2023/11/07 06:07:58;;;;;;;;;;;;;;;17.06;48.95;101410.91;5078946;28;1118;-47
2023/11/07 06:10:23;;;;;;;;;;;;;;;16.57;50.15;101419.22;5085862;28;1015;-50
2023/11/07 06:12:49;;;;;;;;;;;;;;;16.32;51.06;101417.81;5093973;28;955;-46
2023/11/07 06:15:14;;;;;;;;;;;;;;;17.25;48.85;101416.03;5095904;28;1019;-49
2023/11/07 06:17:40;;;;;;;;;;;;;;;16.68;50.14;101418.22;5092516;28;1018;-51
2023/11/07 06:20:06;;;;;;;;;;;;;;;16.39;51.12;101423.94;5075377;28;1046;-49
2023/11/07 06:22:31;;;;;;;;;;;;;;;16.26;51.28;101424.34;5078755;28;1066;-49
2023/11/07 06:24:57;;;;;;;;;;;;;;;16.54;51.17;101426.03;5097373;28;855;-49
2023/11/07 06:27:22;;;;;;;;;;;;;;;17.05;49.64;101436.72;5083228;28;954;-49
2023/11/07 06:29:48;;;;;;;;;;;;;;;16.50;50.96;101435.88;5079114;28;1901;-48
2023/11/07 06:32:14;;;;;;;;;;;;;;;16.36;51.45;101424.47;5092281;28;1077;-50
2023/11/07 06:34:40;;;;;;;;;;;;;;;16.33;51.78;101432.38;5082289;28;2501;-46
2023/11/07 06:37:06;;;;;;;;;;;;;;;17.54;48.76;101429.44;5091418;28;883;-48
2023/11/07 06:39:32;;;;;;;;;;;;;;;16.82;50.75;101437.06;5082991;28;1130;-46
2023/11/07 06:41:58;;;;;;;;;;;;;;;16.53;51.64;101431.78;5069415;28;1111;-49
2023/11/07 06:44:23;;;;;;;;;;;;;;;16.37;51.64;101423.38;5085810;28;1038;-47
2023/11/07 06:46:51;;;;;;;;;;;;;;;16.30;52.06;101430.13;5089801;28;1050;-44
2023/11/07 06:49:16;;;;;;;;;;;;;;;17.05;50.62;101425.75;5095724;28;2008;-44
2023/11/07 06:51:43;;;;;;;;;;;;;;;17.08;50.34;101436.22;5093669;28;1344;-48
2023/11/07 06:54:08;;;;;;;;;;;;;;;16.61;51.40;101425.84;5098541;28;1228;-44
2023/11/07 06:56:34;;;;;;;;;;;;;;;16.45;51.93;101424.81;5085668;28;1133;-50
2023/11/07 06:59:00;;;;;;;;;;;;;;;16.30;52.13;101420.00;5097229;28;1149;-51
2023/11/07 07:01:25;;;;;;;;;;;;;;;16.24;52.11;101421.00;5093463;28;1090;-50
2023/11/07 07:03:55;;;;;;;;;;;;;;;16.12;52.65;101426.63;5098533;28;2450;-45
2023/11/07 07:06:23;;;;;;;;;;;;;;;17.26;50.30;101415.78;5086730;28;1160;-49
2023/11/07 07:08:48;;;;;;;;;;;;;;;16.86;51.07;101424.47;5099146;28;1902;-46
2023/11/07 07:11:14;;;;;;;;;;;;;;;16.54;51.73;101427.97;5096008;28;1129;-49
2023/11/07 07:13:39;;;;;;;;;;;;;;;16.34;52.41;101432.13;5096791;28;1157;-49
2023/11/07 07:16:08;;;;;;;;;;;;;;;16.25;52.59;101433.66;5098768;28;1278;-46
2023/11/07 07:18:39;;;;;;;;;;;;;;;17.51;49.59;101432.72;5098445;28;1389;-48
2023/11/07 07:21:05;;;;;;;;;;;;;;;16.88;51.19;101441.50;5087870;28;1049;-48
2023/11/07 07:23:33;;;;;;;;;;;;;;;16.61;52.10;101434.06;5093799;28;1371;-44
2023/11/07 07:25:59;;;;;;;;;;;;;;;16.47;52.26;101441.06;5091283;28;1220;-47
2023/11/07 07:28:25;;;;;;;;;;;;;;;16.32;52.37;101439.78;5092696;28;1906;-46
2023/11/07 07:30:51;;;;;;;;;;;;;;;16.18;52.69;101449.47;5098047;28;1434;-45
2023/11/07 07:33:18;;;;;;;;;;;;;;;17.36;50.31;101445.28;5088811;28;2277;-47
2023/11/07 07:35:45;;;;;;;;;;;;;;;16.74;51.52;101436.41;5087479;28;1117;-45
2023/11/07 07:38:11;;;;;;;;;;;;;;;16.49;52.24;101436.13;5088651;28;1102;-47
2023/11/07 07:40:38;;;;;;;;;;;;;;;16.38;52.78;101438.78;5094113;28;1457;-48
2023/11/07 07:43:09;;;;;;;;;;;;;;;16.28;52.71;101443.28;5084737;28;1065;-44
2023/11/07 07:45:35;;;;;;;;;;;;;;;16.24;52.73;101442.97;5093966;28;1311;-45
2023/11/07 07:48:03;;;;;;;;;;;;;;;17.35;50.42;101434.50;5092742;28;857;-44
2023/11/07 07:50:30;;;;;;;;;;;;;;;16.69;51.89;101435.53;5079642;28;1141;-48
2023/11/07 07:52:56;;;;;;;;;;;;;;;16.41;52.67;101438.25;5090156;28;1305;-46
2023/11/07 07:55:22;;;;;;;;;;;;;;;16.29;53.04;101432.06;5084711;28;1144;-46
2023/11/07 07:57:47;;;;;;;;;;;;;;;16.22;53.09;101432.25;5086862;28;1217;-46
2023/11/07 08:00:14;;;;;;;;;;;;;;;16.45;52.95;101427.56;5093225;28;1135;-48
2023/11/07 08:02:45;;;;;;;;;;;;;;;17.55;50.13;101429.19;5085911;28;1445;-52
2023/11/07 08:05:14;;;;;;;;;;;;;;;16.82;51.88;101429.63;5087356;28;2598;-52
2023/11/07 08:07:39;;;;;;;;;;;;;;;16.52;52.67;101430.13;5096540;28;1074;-51
2023/11/07 08:10:16;;;;;;;;;;;;;;;16.41;52.71;101432.75;5077496;28;1905;-50
2023/11/07 08:12:44;;;;;;;;;;;;;;;16.29;52.98;101433.97;5093276;28;1100;-48
2023/11/07 08:15:10;;;;;;;;;;;;;;;16.20;53.11;101437.16;5080454;28;1149;-48
2023/11/07 08:17:35;;;;;;;;;;;;;;;16.19;53.34;101429.19;5082035;28;1209;-49
2023/11/07 08:20:19;;;;;;;;;;;;;;;16.08;53.24;101429.03;5090612;28;1275;-49
2023/11/07 08:22:45;;;;;;;;;;;;;;;16.27;53.12;101422.41;5090701;28;1310;-52
2023/11/07 08:25:10;;;;;;;;;;;;;;;17.61;50.32;101419.03;5087529;28;1235;-48
2023/11/07 08:27:40;;;;;;;;;;;;;;;16.87;51.89;101426.09;5083947;28;1398;-52
2023/11/07 08:30:08;;;;;;;;;;;;;;;16.56;52.67;101429.38;5096662;28;1990;-50
2023/11/07 08:32:33;;;;;;;;;;;;;;;16.74;52.52;101428.16;5094210;28;1084;-50
2023/11/07 08:34:59;;;;;;;;;;;;;;;17.32;51.03;101424.91;5076835;28;2719;-50
2023/11/07 08:37:24;;;;;;;;;;;;;;;16.81;52.32;101429.88;5082836;28;1174;-50
2023/11/07 08:39:50;;;;;;;;;;;;;;;16.61;52.74;101425.84;5096395;28;1128;-47
2023/11/07 08:42:15;;;;;;;;;;;;;;;16.49;53.09;101417.72;5086084;28;1121;-49
2023/11/07 08:44:44;;;;;;;;;;;;;;;16.38;53.10;101414.06;5081128;28;1051;-52
2023/11/07 08:47:09;;;;;;;;;;;;;;;16.35;53.19;101422.78;5085687;28;1046;-48
2023/11/07 08:49:35;;;;;;;;;;;;;;;16.22;53.19;101413.03;5086824;28;1907;-48
2023/11/07 08:52:00;;;;;;;;;;;;;;;16.17;53.36;101410.25;5079732;28;1267;-49
2023/11/07 08:54:26;;;;;;;;;;;;;;;16.43;53.19;101419.59;5089666;28;1315;-50
2023/11/07 08:56:51;;;;;;;;;;;;;;;17.53;51.00;101416.78;5090140;28;1012;-47
2023/11/07 08:59:17;;;;;;;;;;;;;;;16.84;52.62;101412.88;5083312;28;1058;-47
2023/11/07 09:01:43;;;;;;;;;;;;;;;16.58;53.19;101426.38;5081699;28;894;-51
2023/11/07 09:04:09;;;;;;;;;;;;;;;16.45;53.33;101426.75;5077012;28;2500;-50
2023/11/07 09:06:37;;;;;;;;;;;;;;;16.33;53.45;101410.44;5083922;28;1051;-51
2023/11/07 09:09:02;;;;;;;;;;;;;;;16.28;53.54;101415.84;5083036;28;1970;-50
2023/11/07 09:11:29;;;;;;;;;;;;;;;16.22;53.76;101417.69;5096380;28;1286;-48
2023/11/07 09:13:54;;;;;;;;;;;;;;;17.52;51.12;101420.66;5095858;28;1520;-50
2023/11/07 09:16:20;;;;;;;;;;;;;;;16.88;52.63;101414.03;5096102;28;1090;-48
2023/11/07 09:18:46;;;;;;;;;;;;;;;16.60;53.10;101411.25;5092228;28;1382;-48
2023/11/07 09:21:12;;;;;;;;;;;;;;;16.47;53.60;101403.44;5092757;28;1148;-50
2023/11/07 09:23:38;;;;;;;;;;;;;;;16.40;53.56;101405.56;5093463;28;1172;-47
2023/11/07 09:26:04;;;;;;;;;;;;;;;16.29;53.83;101403.78;5090206;28;1036;-49
2023/11/07 09:28:29;;;;;;;;;;;;;;;16.29;53.77;101404.63;5096346;28;1982;-48
2023/11/07 09:30:57;;;;;;;;;;;;;;;17.48;51.50;101403.84;5085892;28;1377;-49
2023/11/07 09:33:22;;;;;;;;;;;;;;;16.88;52.89;101405.78;5090384;28;2367;-51
2023/11/07 09:35:48;;;;;;;;;;;;;;;16.55;53.57;101396.66;5076844;28;1343;-49
2023/11/07 09:38:14;;;;;;;;;;;;;;;16.43;53.61;101388.56;5081646;28;1292;-51
2023/11/07 09:40:42;;;;;;;;;;;;;;;16.38;53.52;101383.88;5096211;28;1110;-47
2023/11/07 09:43:08;;;;;;;;;;;;;;;16.30;53.74;101384.31;5087704;28;1070;-49
2023/11/07 09:45:36;;;;;;;;;;;;;;;16.18;53.88;101375.41;5071596;28;1275;-50
2023/11/07 09:48:02;;;;;;;;;;;;;;;16.58;53.49;101382.44;5085095;28;1055;-47
2023/11/07 09:50:29;;;;;;;;;;;;;;;17.61;50.91;101364.03;5079941;28;1905;-48
2023/11/07 09:52:55;;;;;;;;;;;;;;;16.89;52.83;101371.78;5095611;28;1027;-47
2023/11/07 09:55:21;;;;;;;;;;;;;;;16.61;53.44;101365.44;5080948;28;1237;-52
2023/11/07 09:58:01;;;;;;;;;;;;;;;16.48;53.59;101371.31;5058171;28;981;-51
2023/11/07 10:00:27;;;;;;;;;;;;;;;16.38;53.83;101367.41;5078894;28;1054;-49
2023/11/07 10:02:52;;;;;;;;;;;;;;;16.27;53.92;101368.38;5069090;28;1094;-48
2023/11/07 10:05:19;;;;;;;;;;;;;;;17.30;52.15;101365.78;5078463;28;1824;-45
2023/11/07 10:07:49;;;;;;;;;;;;;;;17.15;52.41;101363.72;5089353;28;1086;-47
2023/11/07 10:10:16;;;;;;;;;;;;;;;16.69;53.33;101356.72;5081422;28;1902;-49
2023/11/07 10:12:45;;;;;;;;;;;;;;;16.54;53.49;101354.66;5079394;28;1269;-48
2023/11/07 10:15:15;;;;;;;;;;;;;;;16.45;53.86;101360.88;5095584;28;1085;-49
2023/11/07 10:17:47;;;;;;;;;;;;;;;16.38;53.99;101361.06;5095363;28;1192;-47
2023/11/07 10:20:13;;;;;;;;;;;;;;;16.40;53.95;101353.41;5076372;28;1120;-48
2023/11/07 10:22:42;;;;;;;;;;;;;;;17.69;51.18;101347.03;5087029;28;1433;-50
2023/11/07 10:25:11;;;;;;;;;;;;;;;17.01;52.91;101355.94;5090418;28;1030;-48
2023/11/07 10:27:36;;;;;;;;;;;;;;;16.72;53.53;101349.91;5079871;28;1081;-47
2023/11/07 10:30:04;;;;;;;;;;;;;;;16.54;53.97;101351.91;5093301;28;1972;-47
2023/11/07 10:32:45;;;;;;;;;;;;;;;16.44;54.00;101351.81;5082202;28;1097;-43
2023/11/07 10:35:11;;;;;;;;;;;;;;;16.35;54.29;101348.69;5082585;28;2583;-43
2023/11/07 10:37:37;;;;;;;;;;;;;;;16.31;54.10;101350.28;5088991;28;1389;-47
2023/11/07 10:40:22;;;;;;;;;;;;;;;16.23;54.00;101353.50;5095459;28;1081;-44
2023/11/07 10:42:49;;;;;;;;;;;;;;;17.24;52.79;101351.97;5085781;28;1087;-46
2023/11/07 10:45:15;;;;;;;;;;;;;;;17.11;52.93;101355.19;5076497;28;1248;-43
2023/11/07 10:47:41;;;;;;;;;;;;;;;16.65;54.21;101341.00;5082458;28;1186;-46
2023/11/07 10:50:08;;;;;;;;;;;;;;;16.56;54.29;101348.91;5078809;28;2059;-44
2023/11/07 10:52:34;;;;;;;;;;;;;;;16.47;54.00;101347.72;5085427;28;1313;-44
2023/11/07 10:55:03;;;;;;;;;;;;;;;16.36;54.10;101344.84;5081958;28;1106;-46
2023/11/07 10:57:29;;;;;;;;;;;;;;;16.22;54.46;101349.91;5083833;28;1133;-46
2023/11/07 11:00:03;;;;;;;;;;;;;;;16.18;54.38;101339.72;5076450;28;1370;-42
2023/11/07 11:02:28;;;;;;;;;;;;;;;16.55;54.18;101344.50;5081204;28;979;-47
2023/11/07 11:04:54;;;;;;;;;;;;;;;17.30;52.83;101339.09;5082835;28;2529;-43
2023/11/07 11:07:19;;;;;;;;;;;;;;;16.67;54.23;101325.94;5076066;28;1521;-47
2023/11/07 11:09:45;;;;;;;;;;;;;;;16.52;54.37;101328.53;5077611;28;1978;-48
2023/11/07 11:12:12;;;;;;;;;;;;;;;16.35;54.50;101323.97;5097010;28;1045;-42
2023/11/07 11:14:37;;;;;;;;;;;;;;;16.24;54.55;101323.06;5087706;28;1356;-46
2023/11/07 11:17:03;;;;;;;;;;;;;;;17.41;52.65;101323.50;5086533;28;1198;-44
2023/11/07 11:19:40;;;;;;;;;;;;;;;16.91;53.98;101325.63;5086096;28;1260;-43
2023/11/07 11:22:26;;;;;;;;;;;;;;;16.61;54.38;101332.50;5080984;28;1113;-43
2023/11/07 11:25:13;;;;;;;;;;;;;;;16.47;54.62;101328.50;5096358;28;1137;-48
2023/11/07 11:27:41;;;;;;;;;;;;;;;16.36;54.60;101325.66;5077296;28;1102;-43
2023/11/07 11:30:07;;;;;;;;;;;;;;;16.28;54.37;101312.38;5070339;28;1902;-44
2023/11/07 11:32:32;;;;;;;;;;;;;;;17.54;52.71;101316.69;5098822;28;1111;-43
2023/11/07 11:35:17;;;;;;;;;;;;;;;17.09;53.38;101305.97;5084766;28;2480;-46
2023/11/07 11:38:02;;;;;;;;;;;;;;;16.73;54.76;101308.44;5092684;28;1113;-44
2023/11/07 11:40:46;;;;;;;;;;;;;;;16.52;54.70;101301.09;5090442;28;1138;-46
2023/11/07 11:43:12;;;;;;;;;;;;;;;16.45;54.67;101306.78;5085654;28;1455;-43
2023/11/07 11:45:40;;;;;;;;;;;;;;;16.38;54.76;101306.16;5085302;28;1099;-46
2023/11/07 11:48:06;;;;;;;;;;;;;;;16.76;54.35;101302.41;5090138;28;1351;-47
2023/11/07 11:50:31;;;;;;;;;;;;;;;17.14;53.64;101296.13;5076177;28;1905;-45
2023/11/07 11:52:57;;;;;;;;;;;;;;;16.70;54.67;101295.22;5097797;28;1033;-42
2023/11/07 11:55:22;;;;;;;;;;;;;;;16.52;54.98;101299.19;5091294;28;1138;-42
2023/11/07 11:58:06;;;;;;;;;;;;;;;16.40;54.89;101298.53;5091276;28;1351;-47
2023/11/07 12:00:39;;;;;;;;;;;;;;;16.33;54.67;101289.69;5077835;28;999;-46
2023/11/07 12:03:04;;;;;;;;;;;;;;;16.26;54.79;101298.09;5077974;28;856;-44
2023/11/07 12:05:30;;;;;;;;;;;;;;;16.20;54.73;101299.13;5059675;28;2628;-45
2023/11/07 12:07:56;;;;;;;;;;;;;;;16.31;54.80;101295.41;5084546;28;1181;-45
2023/11/07 12:10:24;;;;;;;;;;;;;;;17.64;52.99;101296.69;5070946;28;1901;-49
2023/11/07 12:13:00;;;;;;;;;;;;;;;17.04;54.39;101292.22;5094369;28;1181;-44
2023/11/07 12:15:26;;;;;;;;;;;;;;;16.67;55.04;101293.00;5096287;28;1295;-44
2023/11/07 12:17:52;;;;;;;;;;;;;;;16.52;54.91;101290.09;5084669;28;1379;-45
2023/11/07 12:20:18;;;;;;;;;;;;;;;16.42;54.81;101297.19;5086218;28;1127;-44
2023/11/07 12:22:49;;;;;;;;;;;;;;;16.33;54.79;101292.41;5095270;28;1418;-45
2023/11/07 12:25:17;;;;;;;;;;;;;;;16.28;54.71;101301.41;5097503;28;1370;-44
2023/11/07 12:28:05;;;;;;;;;;;;;;;17.07;54.31;101296.38;5096638;28;1228;-47
2023/11/07 12:30:31;;;;;;;;;;;;;;;17.18;53.93;101291.75;5097172;28;1970;-46
2023/11/07 12:32:59;;;;;;;;;;;;;;;16.89;54.81;101297.59;5088443;28;1009;-49
2023/11/07 12:35:25;;;;;;;;;;;;;;;16.73;55.05;101300.19;5081430;28;2479;-44
2023/11/07 12:37:51;;;;;;;;;;;;;;;16.55;55.21;101295.91;5094237;28;1010;-45
2023/11/07 12:40:17;;;;;;;;;;;;;;;16.37;55.05;101299.06;5061737;28;1142;-42
2023/11/07 12:42:52;;;;;;;;;;;;;;;16.36;55.47;101298.19;5078357;28;1125;-48
2023/11/07 12:45:25;;;;;;;;;;;;;;;17.37;54.15;101289.41;5097298;28;1260;-47